• Join FlightAware (Why Join?)
  • Login
  • US Flag 
04:46AM EDT


 

Airport Tracker/Info


-or-


 

Live Flight TrackerFlight Track Log ✈ SKW4804 ✈ 22-May-2013 ✈ KLAS - KLAX

Flight Track Log - Related Links

Times and Time Zones

All times are in EDT time to prevent confusion due to time zone crossing. See the SKW4804 flight status page for this flight to view local times or setup timezone preferences in your user account.

Time Position Orientation Groundspeed Altitude Reporting Facility
EDT Latitude Longitude Course Direction KTS MPH feet Rate Location/Type
06:51PM 36.0758 -115.1764 226° Southwest 172 198 3,100  Level Los Angeles Center
06:51PM 36.0758 -115.2161 270° West 186 214 4,500 1,680 Climbing Los Angeles Center
06:52PM 36.0358 -115.2719 228° Southwest 237 273 6,100 1,260 Climbing Los Angeles Center
06:53PM 35.9144 -115.3761 202° Southwest  Level FlightAware Approximate
06:53PM 36.0242 -115.2758 195° South 241 277 6,300  Level Los Angeles Center
06:54PM 35.8162 -115.3473 161° South  Level FlightAware Approximate
06:54PM 35.9603 -115.3019 198° South 260 299 7,800  Level Los Angeles Center
06:55PM 35.7176 -115.3051 161° South  Level FlightAware Approximate
06:55PM 35.8933 -115.3106 186° South 261 300 10,800  Level Los Angeles Center
06:55PM 35.8825 -115.3133 192° South 258 297 11,000 1,920 Climbing Los Angeles Center
06:56PM 35.6394 -115.3304 226° Southwest  Level FlightAware Approximate
06:56PM 35.8050 -115.3119 179° South 268 308 13,400  Level Los Angeles Center
06:57PM 35.7061 -115.2989 174° South 286 329 16,000 2,280 Climbing Los Angeles Center
06:58PM 35.6386 -115.3500 212° Southwest 296 341 18,200 2,100 Climbing Los Angeles Center
06:59PM 35.5786 -115.4272 226° Southwest 307 353 20,400 2,280 Climbing Los Angeles Center
07:00PM 35.5214 -115.5069 229° Southwest 311 358 22,900 2,160 Climbing Los Angeles Center
07:01PM 35.4608 -115.5875 227° Southwest 319 367 24,900 1,560 Climbing Los Angeles Center
07:02PM 35.4011 -115.6675 228° Southwest 328 377 26,200 1,380 Climbing Los Angeles Center
07:03PM 35.3358 -115.7550 228° Southwest 343 395 27,800 840 Climbing Los Angeles Center
07:04PM 35.2544 -115.8625 227° Southwest 356 410 28,000 60 Climbing Los Angeles Center
07:05PM 35.1881 -115.9483 227° Southwest 351 404 28,000  Level Los Angeles Center
07:06PM 35.1211 -116.0308 225° Southwest 345 397 28,000  Level Los Angeles Center
07:07PM 35.0444 -116.1111 221° Southwest 357 411 28,000 -300 Level Los Angeles Center
07:08PM 34.9681 -116.1922 221° Southwest 364 419 27,400 -540 Descending Los Angeles Center
07:09PM 34.8961 -116.2708 222° Southwest 354 407 27,000 -240 Descending Los Angeles Center
07:10PM 34.8081 -116.3647 221° Southwest 350 403 27,000  Level Los Angeles Center
07:11PM 34.7314 -116.4447 221° Southwest 358 412 27,000  Level Los Angeles Center
07:12PM 34.6589 -116.5236 222° Southwest 353 406 27,000  Level Los Angeles Center
07:13PM 34.5889 -116.5997 222° Southwest 341 392 27,000 -180 Level Los Angeles Center
07:14PM 34.5144 -116.6772 221° Southwest 350 403 26,700 -720 Descending Los Angeles Center
07:16PM 34.4400 -116.7575 222° Southwest 355 409 25,500 -1,320 Descending Los Angeles Center
07:17PM 34.3536 -116.8475 221° Southwest 343 395 23,800 -1,860 Descending Los Angeles Center
07:18PM 34.2639 -116.9425 221° Southwest 356 410 21,700 -1,920 Descending Los Angeles Center
07:19PM 34.1883 -117.0219 221° Southwest 358 412 19,900 -1,320 Descending Los Angeles Center
07:20PM 34.1136 -117.1017 221° Southwest 334 384 19,000 -720 Descending Los Angeles Center
07:21PM 34.0675 -117.1989 240° Southwest 340 391 18,500 -1,200 Descending Los Angeles Center
07:22PM 34.0422 -117.3039 254° West 331 381 16,600 -2,160 Descending Los Angeles Center
07:23PM 34.0333 -117.4119 264° West 327 376 14,100 -2,400 Descending Los Angeles Center
07:24PM 34.0167 -117.5333 261° West 299 344 11,800 -2,040 Descending Southern California TRACON
07:25PM 34.0167 -117.6333 270° West 363 418 10,100 -960 Descending Southern California TRACON
07:26PM 34.0000 -117.7167 256° West 275 316 9,900 -600 Descending Southern California TRACON
07:27PM 34.0000 -117.8167 270° West 260 299 8,900 -1,020 Descending Southern California TRACON
07:28PM 33.9833 -117.9000 256° West 265 305 7,900 -1,140 Descending Southern California TRACON
07:29PM 33.9833 -117.9833 270° West 255 293 6,700 -1,200 Descending Southern California TRACON
07:30PM 33.9667 -118.0667 256° West 237 273 5,500 -1,320 Descending Southern California TRACON
07:31PM 33.9667 -118.1333 270° West 218 251 4,200 -1,380 Descending Southern California TRACON
07:31PM 33.9608 -118.1567 253° West 226 260 3,800 -1,620 Descending Los Angeles Center